createdAt,value
2019-01-29T00:00:35.865Z,8.88
2019-01-29T00:04:06.954Z,8.91
2019-01-29T00:07:37.071Z,8.9
2019-01-29T00:11:07.110Z,8.88
2019-01-29T00:14:37.289Z,8.79
2019-01-29T00:18:07.438Z,8.77
2019-01-29T00:21:37.676Z,8.78
2019-01-29T00:25:08.214Z,8.76
2019-01-29T00:28:38.311Z,8.73
2019-01-29T00:32:08.449Z,8.73
2019-01-29T00:35:38.549Z,8.74
2019-01-29T00:39:08.747Z,8.71
2019-01-29T00:42:38.875Z,8.7
2019-01-29T00:46:09.034Z,8.54
2019-01-29T00:49:39.203Z,8.5
2019-01-29T00:53:09.254Z,8.53
2019-01-29T00:56:39.440Z,8.52
2019-01-29T01:00:13.826Z,8.47
2019-01-29T01:03:43.885Z,8.41
2019-01-29T01:07:14.233Z,8.39
2019-01-29T01:10:44.323Z,8.44
2019-01-29T01:14:14.270Z,8.46
2019-01-29T01:17:44.295Z,8.58
2019-01-29T01:21:14.423Z,8.6
2019-01-29T01:24:44.451Z,8.65
2019-01-29T01:28:14.599Z,8.63
2019-01-29T01:31:44.647Z,8.67
2019-01-29T01:35:14.721Z,8.62
2019-01-29T01:38:44.854Z,8.61
2019-01-29T01:42:14.932Z,8.57
2019-01-29T01:45:45.130Z,8.65
2019-01-29T01:49:15.199Z,8.69
2019-01-29T01:52:45.386Z,8.74
2019-01-29T01:56:15.506Z,8.67
2019-01-29T01:59:45.676Z,8.75
2019-01-29T02:00:17.443Z,8.75
2019-01-29T02:03:47.531Z,8.79
2019-01-29T02:07:18.559Z,8.78
2019-01-29T02:10:48.558Z,8.83
2019-01-29T02:14:18.628Z,8.98
2019-01-29T02:17:48.655Z,9.05
2019-01-29T02:21:19.306Z,9.17
2019-01-29T02:24:49.401Z,9.28
2019-01-29T02:28:19.590Z,9.34
2019-01-29T02:31:49.742Z,9.37
2019-01-29T02:35:19.816Z,9.33
2019-01-29T02:38:49.944Z,9.17
2019-01-29T02:42:20.013Z,8.92
2019-01-29T02:45:50.133Z,8.74
2019-01-29T02:49:20.180Z,8.6
2019-01-29T02:52:50.227Z,8.62
2019-01-29T02:56:20.386Z,8.57
2019-01-29T02:59:50.454Z,8.61
2019-01-29T03:03:20.732Z,8.73
2019-01-29T03:06:50.871Z,8.76
2019-01-29T03:10:23.629Z,8.89
2019-01-29T03:13:53.838Z,8.94
2019-01-29T03:17:23.850Z,8.98
2019-01-29T03:20:53.924Z,8.99
2019-01-29T03:24:24.152Z,8.99
2019-01-29T03:27:54.214Z,9.1
2019-01-29T03:31:24.259Z,9.23
2019-01-29T03:34:54.337Z,9.38
2019-01-29T03:38:24.366Z,9.5
2019-01-29T03:41:54.564Z,9.59
2019-01-29T03:45:24.682Z,9.52
2019-01-29T03:48:54.764Z,9.47
2019-01-29T03:52:24.897Z,9.47
2019-01-29T03:55:55.127Z,9.4
2019-01-29T03:59:25.176Z,8.97
2019-01-29T04:00:19.536Z,8.92
2019-01-29T04:03:49.643Z,8.87
2019-01-29T04:07:19.791Z,8.82
2019-01-29T04:10:50.810Z,8.77
2019-01-29T04:14:20.971Z,8.7
2019-01-29T04:17:54.967Z,8.72
2019-01-29T04:21:24.995Z,8.66
2019-01-29T04:24:55.104Z,8.48
2019-01-29T04:28:25.271Z,8.42
2019-01-29T04:31:55.439Z,8.42
2019-01-29T04:35:25.568Z,8.33
2019-01-29T04:38:55.557Z,8.34
2019-01-29T04:42:25.724Z,8.31
2019-01-29T04:45:55.792Z,8.24
2019-01-29T04:49:25.984Z,8.26
2019-01-29T04:52:56.059Z,8.27
2019-01-29T04:56:26.177Z,8.27
2019-01-29T04:59:56.176Z,8.21
2019-01-29T05:03:26.264Z,8.2
2019-01-29T05:06:56.362Z,8.17
2019-01-29T05:10:26.391Z,8.11
2019-01-29T05:13:57.458Z,8.07
2019-01-29T05:17:27.518Z,8.09
2019-01-29T05:20:57.645Z,8.02
2019-01-29T05:24:27.814Z,8.03
2019-01-29T05:27:57.892Z,8.05
2019-01-29T05:31:27.961Z,8.06
2019-01-29T05:34:58.069Z,8.08
2019-01-29T05:38:28.130Z,8.1
2019-01-29T05:41:58.227Z,8.13
2019-01-29T05:45:28.301Z,8.19
2019-01-29T05:48:58.471Z,8.21
2019-01-29T05:52:28.568Z,8.22
2019-01-29T05:55:58.638Z,8.12
2019-01-29T05:59:28.736Z,8.15
2019-01-29T06:00:18.117Z,8.15
2019-01-29T06:03:48.274Z,8.3
2019-01-29T06:07:18.404Z,8.45
2019-01-29T06:10:48.456Z,8.59
2019-01-29T06:14:19.450Z,8.79
2019-01-29T06:17:49.517Z,9.08
2019-01-29T06:21:19.847Z,9.25
2019-01-29T06:24:50.034Z,9.46
2019-01-29T06:28:20.232Z,9.65
2019-01-29T06:31:50.330Z,9.82
2019-01-29T06:35:20.709Z,10.01
2019-01-29T06:38:50.796Z,10.24
2019-01-29T06:42:21.006Z,10.43
2019-01-29T06:45:51.181Z,10.51
2019-01-29T06:49:21.268Z,10.78
2019-01-29T06:52:51.459Z,10.99
2019-01-29T06:56:21.551Z,11.2
2019-01-29T06:59:51.687Z,11.25
2019-01-29T07:03:21.812Z,11.45
2019-01-29T07:06:51.944Z,11.56
2019-01-29T07:10:22.393Z,11.75
2019-01-29T07:13:52.421Z,12.03
2019-01-29T07:17:27.032Z,12.23
2019-01-29T07:20:57.148Z,12.46
2019-01-29T07:24:27.356Z,12.66
2019-01-29T07:27:57.525Z,12.81
2019-01-29T07:31:27.734Z,12.98
2019-01-29T07:34:57.912Z,13.14
2019-01-29T07:38:28.000Z,13.28
2019-01-29T07:41:57.999Z,13.34
2019-01-29T07:45:28.197Z,13.59
2019-01-29T07:48:58.278Z,13.86
2019-01-29T07:52:28.265Z,14.07
2019-01-29T07:55:58.312Z,13.99
2019-01-29T07:59:33.198Z,14.04
2019-01-29T08:00:15.471Z,14
2019-01-29T08:03:45.590Z,14
2019-01-29T08:07:15.781Z,13.89
2019-01-29T08:10:45.827Z,13.92
2019-01-29T08:14:15.916Z,13.91
2019-01-29T08:17:47.014Z,14.15
2019-01-29T08:21:17.183Z,13.88
2019-01-29T08:24:51.925Z,14
2019-01-29T08:28:26.580Z,14.38
2019-01-29T08:31:56.702Z,14.68
2019-01-29T08:35:26.895Z,14.62
2019-01-29T08:38:56.936Z,14.63
2019-01-29T08:42:27.094Z,14.75
2019-01-29T08:45:57.223Z,14.76
2019-01-29T08:49:27.371Z,14.92
2019-01-29T08:52:57.400Z,15.27
2019-01-29T08:56:27.598Z,15.35
2019-01-29T08:59:57.713Z,15.39
2019-01-29T09:03:27.806Z,15.32
2019-01-29T09:06:57.944Z,15.28
2019-01-29T09:10:28.003Z,15.29
2019-01-29T09:13:58.072Z,15.09
2019-01-29T09:17:28.210Z,15.08
2019-01-29T09:20:59.279Z,15.03
2019-01-29T09:24:29.368Z,15.02
2019-01-29T09:27:59.439Z,14.87
2019-01-29T09:31:29.554Z,14.52
2019-01-29T09:34:59.754Z,14.15
2019-01-29T09:38:29.842Z,14.14
2019-01-29T09:41:59.798Z,14.38
2019-01-29T09:45:29.938Z,14.25
2019-01-29T09:49:00.057Z,14.4
2019-01-29T09:52:30.226Z,14.32
2019-01-29T09:56:00.284Z,14.59
2019-01-29T09:59:30.402Z,14.64
2019-01-29T10:00:18.740Z,14.65
2019-01-29T10:03:48.742Z,15
2019-01-29T10:07:18.910Z,15.04
2019-01-29T10:10:49.025Z,14.69
2019-01-29T10:14:19.231Z,14.31
2019-01-29T10:17:49.444Z,14.1
2019-01-29T10:21:19.684Z,14.35
2019-01-29T10:24:49.787Z,14.58
2019-01-29T10:28:19.920Z,14.63
2019-01-29T10:31:50.000Z,14.94
2019-01-29T10:35:21.170Z,14.73
2019-01-29T10:38:51.257Z,14.51
2019-01-29T10:42:21.307Z,13.87
2019-01-29T10:45:51.454Z,13.2
2019-01-29T10:49:21.572Z,13.15
2019-01-29T10:52:52.061Z,13.17
2019-01-29T10:56:22.175Z,13.26
2019-01-29T10:59:52.228Z,13.78
2019-01-29T11:03:22.358Z,14.37
2019-01-29T11:06:52.458Z,15.28
2019-01-29T11:10:22.535Z,15.86
2019-01-29T11:13:52.602Z,16.29
2019-01-29T11:17:22.731Z,16.15
2019-01-29T11:20:52.791Z,15.39
2019-01-29T11:24:23.859Z,14.52
2019-01-29T11:27:53.977Z,14.18
2019-01-29T11:31:24.145Z,14.26
2019-01-29T11:34:54.133Z,14.24
2019-01-29T11:38:24.203Z,14.1
2019-01-29T11:41:54.285Z,13.86
2019-01-29T11:45:27.994Z,13.56
2019-01-29T11:48:58.099Z,13.53
2019-01-29T11:52:28.387Z,13.77
2019-01-29T11:56:04.466Z,13.84
2019-01-29T11:59:35.154Z,14.04
2019-01-29T12:00:19.903Z,14.05
2019-01-29T12:03:49.914Z,14.12
2019-01-29T12:07:19.981Z,13.83
2019-01-29T12:10:50.172Z,13.43
2019-01-29T12:14:20.297Z,13.49
2019-01-29T12:17:50.366Z,13.61
2019-01-29T12:21:20.444Z,13.58
2019-01-29T12:24:51.508Z,13.6
2019-01-29T12:28:21.653Z,13.74
2019-01-29T12:31:51.761Z,13.84
2019-01-29T12:35:23.737Z,13.81
2019-01-29T12:38:54.057Z,13.75
2019-01-29T12:42:24.116Z,13.64
2019-01-29T12:45:54.234Z,13.56
2019-01-29T12:49:24.282Z,13.53
2019-01-29T12:53:12.411Z,13.35
2019-01-29T12:56:42.645Z,13.02
2019-01-29T13:00:14.229Z,12.69
2019-01-29T13:03:44.264Z,12.36
2019-01-29T13:07:14.376Z,12.17
2019-01-29T13:10:44.584Z,12.17
2019-01-29T13:14:14.852Z,12.17
2019-01-29T13:17:45.031Z,12.14
2019-01-29T13:21:15.129Z,12.3
2019-01-29T13:24:45.227Z,12.23
2019-01-29T13:28:15.524Z,12.35
2019-01-29T13:31:45.655Z,12.26
2019-01-29T13:35:16.079Z,12.2
2019-01-29T13:38:46.273Z,12.14
2019-01-29T13:42:16.301Z,12.19
2019-01-29T13:45:47.352Z,12.3
2019-01-29T13:49:17.585Z,12.38
2019-01-29T13:52:47.733Z,12.42
2019-01-29T13:56:17.854Z,12.43
2019-01-29T13:59:48.045Z,12.5
2019-01-29T14:00:19.936Z,12.49
2019-01-29T14:03:49.963Z,12.54
2019-01-29T14:07:20.183Z,12.58
2019-01-29T14:10:50.333Z,12.57
2019-01-29T14:14:20.432Z,12.59
2019-01-29T14:17:50.533Z,12.6
2019-01-29T14:21:20.733Z,12.66
2019-01-29T14:24:50.844Z,12.73
2019-01-29T14:28:22.043Z,12.73
2019-01-29T14:31:52.072Z,12.78
2019-01-29T14:35:22.432Z,12.74
2019-01-29T14:40:17.701Z,12.66
2019-01-29T14:43:51.453Z,12.6
2019-01-29T14:47:21.668Z,12.55
2019-01-29T14:50:51.736Z,12.44
2019-01-29T14:54:21.814Z,12.32
2019-01-29T14:57:52.029Z,12.31
2019-01-29T15:01:22.302Z,12.34
2019-01-29T15:04:52.356Z,12.34
2019-01-29T15:08:22.540Z,12.42
2019-01-29T15:11:52.741Z,12.37
2019-01-29T15:15:23.722Z,12.41
2019-01-29T15:18:58.586Z,12.42
2019-01-29T15:22:28.704Z,12.48
2019-01-29T15:25:58.817Z,12.49
2019-01-29T15:29:29.850Z,12.5
2019-01-29T15:33:00.011Z,12.45
2019-01-29T15:36:30.018Z,12.27
2019-01-29T15:40:00.281Z,12.16
2019-01-29T15:43:30.245Z,12.08
2019-01-29T15:47:00.391Z,12.04
2019-01-29T15:50:31.301Z,12.06
2019-01-29T15:54:01.468Z,12.09
2019-01-29T15:57:31.628Z,12.13
2019-01-29T16:00:19.717Z,12.19
2019-01-29T16:03:49.778Z,12.27
2019-01-29T16:07:19.969Z,12.29
2019-01-29T16:10:50.179Z,12.35
2019-01-29T16:14:20.288Z,12.39
2019-01-29T16:17:50.558Z,12.26
2019-01-29T16:21:20.739Z,12.17
2019-01-29T16:24:50.942Z,12.21
2019-01-29T16:28:20.978Z,12.11
2019-01-29T16:31:51.961Z,12
2019-01-29T16:35:25.103Z,11.99
2019-01-29T16:38:55.242Z,11.96
2019-01-29T16:42:25.371Z,12.04
2019-01-29T16:45:55.482Z,11.88
2019-01-29T16:49:25.633Z,11.47
2019-01-29T16:52:56.107Z,11.52
2019-01-29T16:56:26.176Z,11.51
2019-01-29T16:59:56.257Z,11.49
2019-01-29T17:03:26.448Z,11.56
2019-01-29T17:06:56.475Z,11.6
2019-01-29T17:10:26.785Z,11.56
2019-01-29T17:13:56.904Z,11.48
2019-01-29T17:17:27.104Z,11.43
2019-01-29T17:20:57.284Z,11.45
2019-01-29T17:24:27.405Z,11.52
2019-01-29T17:27:57.504Z,11.53
2019-01-29T17:31:27.665Z,11.62
2019-01-29T17:34:58.684Z,11.63
2019-01-29T17:38:28.824Z,11.7
2019-01-29T17:41:58.885Z,11.8
2019-01-29T17:45:32.404Z,11.78
2019-01-29T17:49:02.724Z,11.72
2019-01-29T17:52:32.874Z,11.7
2019-01-29T17:56:03.214Z,11.7
2019-01-29T17:59:33.365Z,11.74
2019-01-29T18:00:19.154Z,11.74
2019-01-29T18:03:49.274Z,11.88
2019-01-29T18:07:19.504Z,11.96
2019-01-29T18:10:49.549Z,11.87
2019-01-29T18:14:19.696Z,11.74
2019-01-29T18:17:49.724Z,11.66
2019-01-29T18:21:19.884Z,11.6
2019-01-29T18:24:49.964Z,11.51
2019-01-29T18:28:20.004Z,11.63
2019-01-29T18:31:49.990Z,11.54
2019-01-29T18:35:21.234Z,11.32
2019-01-29T18:38:51.463Z,10.87
2019-01-29T18:42:21.654Z,10.67
2019-01-29T18:45:51.744Z,10.63
2019-01-29T18:49:22.054Z,10.69
2019-01-29T18:52:52.424Z,10.93
2019-01-29T18:56:22.544Z,11.19
2019-01-29T18:59:52.683Z,11.26
2019-01-29T19:03:22.764Z,11.38
2019-01-29T19:06:52.884Z,11.49
2019-01-29T19:10:23.043Z,11.54
2019-01-29T19:13:53.043Z,11.54
2019-01-29T19:17:23.134Z,11.53
2019-01-29T19:20:53.072Z,11.45
2019-01-29T19:24:23.128Z,11.41
2019-01-29T19:27:53.243Z,11.37
2019-01-29T19:31:23.394Z,11.28
2019-01-29T19:34:53.424Z,11.17
2019-01-29T19:38:23.733Z,11.04
2019-01-29T19:41:53.833Z,10.91
2019-01-29T19:45:26.454Z,10.86
2019-01-29T19:48:56.553Z,10.69
2019-01-29T19:52:26.974Z,10.65
2019-01-29T19:55:57.234Z,10.52
2019-01-29T19:59:27.393Z,10.52
2019-01-29T20:00:18.704Z,10.53
2019-01-29T20:03:48.933Z,10.5
2019-01-29T20:07:19.113Z,10.47
2019-01-29T20:10:49.263Z,10.46
2019-01-29T20:14:19.472Z,10.53
2019-01-29T20:17:50.803Z,10.47
2019-01-29T20:21:20.883Z,10.3
2019-01-29T20:24:51.022Z,10.2
2019-01-29T20:28:21.093Z,10.2
2019-01-29T20:31:51.192Z,10.26
2019-01-29T20:35:21.451Z,10.23
2019-01-29T20:38:52.472Z,10.27
2019-01-29T20:42:22.722Z,10.27
2019-01-29T20:45:52.902Z,10.24
2019-01-29T20:49:22.972Z,10.14
2019-01-29T20:52:53.002Z,10.07
2019-01-29T20:56:23.238Z,9.98
2019-01-29T20:59:53.351Z,9.93
2019-01-29T21:03:23.512Z,9.84
2019-01-29T21:06:53.582Z,9.75
2019-01-29T21:10:23.844Z,9.68
2019-01-29T21:13:54.002Z,9.56
2019-01-29T21:17:24.047Z,9.37
2019-01-29T21:20:57.178Z,9.47
2019-01-29T21:24:27.606Z,9.56
2019-01-29T21:27:57.641Z,9.66
2019-01-29T21:31:27.801Z,9.72
2019-01-29T21:34:57.810Z,9.87
2019-01-29T21:38:27.930Z,9.99
2019-01-29T21:41:58.993Z,9.98
2019-01-29T21:45:29.131Z,10.01
2019-01-29T21:48:59.100Z,10.02
2019-01-29T21:52:29.254Z,10.02
2019-01-29T21:55:59.311Z,10.17
2019-01-29T21:59:29.480Z,10.15
2019-01-29T22:00:19.614Z,10.13
2019-01-29T22:03:49.669Z,10.14
2019-01-29T22:07:19.760Z,10.04
2019-01-29T22:10:49.772Z,9.91
2019-01-29T22:14:19.934Z,9.82
2019-01-29T22:17:50.009Z,9.84
2019-01-29T22:21:20.189Z,9.91
2019-01-29T22:24:50.279Z,9.93
2019-01-29T22:28:20.469Z,9.98
2019-01-29T22:31:50.679Z,10.06
2019-01-29T22:35:20.998Z,9.97
2019-01-29T22:38:51.043Z,9.95
2019-01-29T22:42:21.204Z,10.05
2019-01-29T22:45:51.269Z,10.04
2019-01-29T22:49:21.398Z,10.02
2019-01-29T22:52:51.538Z,9.93
2019-01-29T22:56:21.628Z,9.73
2019-01-29T22:59:51.638Z,9.77
2019-01-29T23:03:26.907Z,9.83
2019-01-29T23:07:08.212Z,9.92
2019-01-29T23:10:38.427Z,9.98
2019-01-29T23:14:08.567Z,10.02
2019-01-29T23:17:38.597Z,10.15
2019-01-29T23:21:08.838Z,10.24
2019-01-29T23:24:38.996Z,10.27
2019-01-29T23:28:09.097Z,10.29
2019-01-29T23:31:39.235Z,10.29
2019-01-29T23:35:09.406Z,10.31
2019-01-29T23:38:39.394Z,10.31
2019-01-29T23:42:09.436Z,10.23
2019-01-29T23:45:40.604Z,10.25
2019-01-29T23:49:10.656Z,10.15
2019-01-29T23:52:40.766Z,10.14
2019-01-29T23:56:10.956Z,10.13
2019-01-29T23:59:41.006Z,10.19
